createdAt,value
2017-12-17T00:00:05.162Z,97.50
2017-12-17T00:02:32.776Z,97.50
2017-12-17T00:05:00.314Z,97.60
2017-12-17T00:07:27.799Z,97.80
2017-12-17T00:09:55.270Z,97.40
2017-12-17T00:12:22.755Z,97.60
2017-12-17T00:14:51.019Z,97.50
2017-12-17T00:17:18.528Z,97.50
2017-12-17T00:19:46.796Z,97.10
2017-12-17T00:22:15.078Z,97.70
2017-12-17T00:24:42.607Z,97.70
2017-12-17T00:27:10.782Z,97.70
2017-12-17T00:29:38.233Z,97.70
2017-12-17T00:32:05.747Z,97.90
2017-12-17T00:34:34.030Z,98.20
2017-12-17T00:37:02.305Z,98.00
2017-12-17T00:39:29.777Z,97.90
2017-12-17T00:41:58.078Z,97.80
2017-12-17T00:44:25.511Z,97.80
2017-12-17T00:46:52.983Z,97.90
2017-12-17T00:49:20.481Z,98.10
2017-12-17T00:51:47.958Z,98.30
2017-12-17T00:54:15.418Z,98.30
2017-12-17T00:56:42.899Z,98.10
2017-12-17T00:59:10.437Z,98.30
2017-12-17T01:01:38.236Z,98.20
2017-12-17T01:04:05.778Z,98.10
2017-12-17T01:06:33.333Z,97.80
2017-12-17T01:09:01.913Z,98.20
2017-12-17T01:11:29.555Z,97.90
2017-12-17T01:13:57.791Z,98.40
2017-12-17T01:16:25.230Z,98.00
2017-12-17T01:18:52.975Z,97.90
2017-12-17T01:21:20.550Z,97.90
2017-12-17T01:23:48.008Z,97.80
2017-12-17T01:26:15.499Z,97.80
2017-12-17T01:28:42.945Z,98.10
2017-12-17T01:31:10.448Z,97.80
2017-12-17T01:33:37.945Z,97.80
2017-12-17T01:36:06.212Z,98.10
2017-12-17T01:38:34.466Z,97.60
2017-12-17T01:41:01.942Z,97.60
2017-12-17T01:43:29.397Z,97.70
2017-12-17T01:45:56.926Z,97.90
2017-12-17T01:48:25.126Z,98.10
2017-12-17T01:50:52.604Z,98.10
2017-12-17T01:53:20.081Z,97.80
2017-12-17T01:55:47.563Z,97.90
2017-12-17T01:58:15.076Z,98.10
2017-12-17T02:00:42.587Z,97.80
2017-12-17T02:03:10.856Z,97.80
2017-12-17T02:05:38.361Z,97.80
2017-12-17T02:08:05.835Z,97.80
2017-12-17T02:10:33.478Z,97.30
2017-12-17T02:13:00.983Z,97.40
2017-12-17T02:15:28.507Z,97.40
2017-12-17T02:17:56.017Z,97.80
2017-12-17T02:20:23.519Z,97.40
2017-12-17T02:22:51.025Z,97.30
2017-12-17T02:25:18.490Z,97.10
2017-12-17T02:27:46.080Z,97.10
2017-12-17T02:30:13.544Z,97.40
2017-12-17T02:32:41.126Z,97.10
2017-12-17T02:35:09.484Z,96.90
2017-12-17T02:37:36.937Z,96.90
2017-12-17T02:40:04.390Z,97.10
2017-12-17T02:42:31.872Z,97.10
2017-12-17T02:44:59.334Z,97.50
2017-12-17T02:47:26.794Z,97.60
2017-12-17T02:49:54.252Z,97.50
2017-12-17T02:52:21.741Z,97.50
2017-12-17T02:54:49.996Z,97.80
2017-12-17T02:57:17.466Z,97.70
2017-12-17T02:59:45.130Z,97.50
2017-12-17T03:02:12.607Z,97.70
2017-12-17T03:04:40.055Z,97.50
2017-12-17T03:07:07.570Z,97.60
2017-12-17T03:09:35.021Z,97.00
2017-12-17T03:12:02.529Z,96.90
2017-12-17T03:14:30.069Z,97.40
2017-12-17T03:16:57.509Z,97.40
2017-12-17T03:19:25.007Z,97.50
2017-12-17T03:21:52.514Z,97.70
2017-12-17T03:24:20.748Z,97.60
2017-12-17T03:26:49.117Z,97.50
2017-12-17T03:29:16.517Z,97.20
2017-12-17T03:31:43.992Z,97.20
2017-12-17T03:34:12.282Z,97.10
2017-12-17T03:36:39.764Z,97.10
2017-12-17T03:39:07.948Z,97.90
2017-12-17T03:41:35.464Z,97.70
2017-12-17T03:44:02.958Z,97.30
2017-12-17T03:46:31.161Z,97.70
2017-12-17T03:48:59.402Z,97.70
2017-12-17T03:51:26.853Z,97.70
2017-12-17T03:53:54.416Z,97.60
2017-12-17T03:56:21.869Z,97.50
2017-12-17T03:58:49.374Z,97.20
2017-12-17T04:01:16.841Z,97.30
2017-12-17T04:03:44.331Z,97.10
2017-12-17T04:06:11.810Z,96.90
2017-12-17T04:08:39.289Z,96.70
2017-12-17T04:11:07.511Z,96.90
2017-12-17T04:13:34.990Z,96.90
2017-12-17T04:16:02.692Z,97.10
2017-12-17T04:18:30.158Z,97.20
2017-12-17T04:20:57.612Z,97.30
2017-12-17T04:23:25.130Z,97.30
2017-12-17T04:25:52.613Z,97.50
2017-12-17T04:28:20.096Z,97.20
2017-12-17T04:30:47.543Z,97.70
2017-12-17T04:33:15.056Z,97.20
2017-12-17T04:35:42.552Z,97.40
2017-12-17T04:38:10.007Z,97.10
2017-12-17T04:40:37.477Z,96.90
2017-12-17T04:43:04.968Z,97.00
2017-12-17T04:45:32.399Z,96.80
2017-12-17T04:47:59.856Z,96.80
2017-12-17T04:50:27.375Z,97.20
2017-12-17T04:52:54.908Z,97.20
2017-12-17T04:55:23.089Z,96.70
2017-12-17T04:57:50.577Z,96.70
2017-12-17T05:00:18.025Z,96.90
2017-12-17T05:02:45.658Z,97.10
2017-12-17T05:05:13.908Z,97.10
2017-12-17T05:07:42.183Z,97.40
2017-12-17T05:10:09.677Z,97.40
2017-12-17T05:12:37.107Z,97.40
2017-12-17T05:15:04.576Z,97.50
2017-12-17T05:17:32.883Z,97.10
2017-12-17T05:20:00.387Z,97.10
2017-12-17T05:22:27.866Z,96.70
2017-12-17T05:24:55.344Z,96.90
2017-12-17T05:27:23.566Z,96.80
2017-12-17T05:29:51.052Z,96.80
2017-12-17T05:32:18.532Z,97.20
2017-12-17T05:34:46.027Z,97.00
2017-12-17T05:37:13.531Z,96.90
2017-12-17T05:39:41.739Z,96.70
2017-12-17T05:42:09.207Z,96.40
2017-12-17T05:44:36.678Z,96.70
2017-12-17T05:47:04.920Z,96.70
2017-12-17T05:49:32.581Z,96.70
2017-12-17T05:52:00.200Z,96.90
2017-12-17T05:54:27.621Z,96.70
2017-12-17T05:56:55.156Z,96.50
2017-12-17T05:59:23.363Z,96.90
2017-12-17T06:01:50.905Z,96.90
2017-12-17T06:04:18.349Z,97.00
2017-12-17T06:06:45.859Z,96.70
2017-12-17T06:09:13.297Z,96.40
2017-12-17T06:11:40.774Z,96.20
2017-12-17T06:14:08.248Z,96.70
2017-12-17T06:16:35.745Z,96.70
2017-12-17T06:19:04.000Z,96.50
2017-12-17T06:21:31.461Z,96.50
2017-12-17T06:23:58.972Z,96.20
2017-12-17T06:26:26.475Z,96.30
2017-12-17T06:28:53.951Z,96.30
2017-12-17T06:31:21.452Z,96.00
2017-12-17T06:33:50.133Z,96.00
2017-12-17T06:36:17.605Z,96.00
2017-12-17T06:38:45.100Z,96.00
2017-12-17T06:41:12.602Z,95.90
2017-12-17T06:43:40.084Z,96.30
2017-12-17T06:46:08.686Z,96.40
2017-12-17T06:48:36.087Z,96.40
2017-12-17T06:51:03.541Z,96.00
2017-12-17T06:53:31.055Z,95.90
2017-12-17T06:55:58.560Z,96.20
2017-12-17T06:58:26.105Z,95.90
2017-12-17T07:00:53.587Z,96.10
2017-12-17T07:03:21.039Z,96.30
2017-12-17T07:05:48.544Z,96.30
2017-12-17T07:08:16.014Z,96.70
2017-12-17T07:10:44.355Z,96.80
2017-12-17T07:13:12.573Z,96.30
2017-12-17T07:15:41.538Z,96.00
2017-12-17T07:18:09.047Z,96.00
2017-12-17T07:20:37.305Z,95.90
2017-12-17T07:23:04.801Z,95.90
2017-12-17T07:25:32.267Z,96.20
2017-12-17T07:28:00.533Z,95.90
2017-12-17T07:30:28.027Z,95.90
2017-12-17T07:32:55.497Z,96.00
2017-12-17T07:35:23.006Z,95.80
2017-12-17T07:37:50.472Z,95.80
2017-12-17T07:40:18.793Z,96.40
2017-12-17T07:42:46.768Z,96.30
2017-12-17T07:45:14.526Z,95.90
2017-12-17T07:47:42.031Z,95.90
2017-12-17T07:50:10.856Z,95.90
2017-12-17T07:52:39.430Z,95.70
2017-12-17T07:55:06.911Z,95.50
2017-12-17T07:57:34.364Z,95.70
2017-12-17T08:00:01.916Z,95.40
2017-12-17T08:02:29.424Z,95.60
2017-12-17T08:04:57.861Z,95.20
2017-12-17T08:07:25.349Z,95.90
2017-12-17T08:09:53.708Z,95.60
2017-12-17T08:12:21.124Z,95.60
2017-12-17T08:14:48.654Z,96.00
2017-12-17T08:17:16.093Z,96.10
2017-12-17T08:19:43.784Z,96.00
2017-12-17T08:22:12.015Z,95.70
2017-12-17T08:24:39.454Z,95.70
2017-12-17T08:27:06.967Z,95.40
2017-12-17T08:29:34.460Z,95.20
2017-12-17T08:32:02.683Z,95.90
2017-12-17T08:34:30.183Z,95.80
2017-12-17T08:36:57.659Z,95.90
2017-12-17T08:39:25.935Z,96.30
2017-12-17T08:41:54.251Z,96.40
2017-12-17T08:44:21.871Z,96.10
2017-12-17T08:46:49.388Z,96.30
2017-12-17T08:49:16.860Z,96.40
2017-12-17T08:51:44.353Z,96.70
2017-12-17T08:54:11.862Z,96.30
2017-12-17T08:56:39.496Z,96.60
2017-12-17T08:59:07.630Z,96.50
2017-12-17T09:01:35.139Z,96.50
2017-12-17T09:04:02.611Z,96.90
2017-12-17T09:06:30.895Z,96.80
2017-12-17T09:08:58.684Z,96.80
2017-12-17T09:11:26.210Z,96.90
2017-12-17T09:13:53.682Z,97.00
2017-12-17T09:16:21.151Z,97.40
2017-12-17T09:18:49.380Z,97.60
2017-12-17T09:21:16.943Z,97.30
2017-12-17T09:23:44.482Z,97.50
2017-12-17T09:26:12.024Z,97.50
2017-12-17T09:28:39.864Z,97.60
2017-12-17T09:31:07.406Z,97.20
2017-12-17T09:33:34.941Z,97.00
2017-12-17T09:36:02.456Z,96.80
2017-12-17T09:38:29.917Z,97.00
2017-12-17T09:40:57.532Z,96.70
2017-12-17T09:43:25.034Z,96.50
2017-12-17T09:45:52.487Z,96.00
2017-12-17T09:48:20.078Z,95.80
2017-12-17T09:50:47.545Z,96.50
2017-12-17T09:53:15.071Z,96.90
2017-12-17T09:55:42.544Z,96.80
2017-12-17T09:58:10.065Z,96.90
2017-12-17T10:00:38.351Z,97.40
2017-12-17T10:03:06.722Z,97.20
2017-12-17T10:05:35.045Z,97.30
2017-12-17T10:08:02.532Z,97.30
2017-12-17T10:10:30.054Z,97.50
2017-12-17T10:12:57.489Z,97.60
2017-12-17T10:15:25.005Z,97.60
2017-12-17T10:17:52.476Z,97.30
2017-12-17T10:20:19.997Z,97.10
2017-12-17T10:22:48.296Z,96.30
2017-12-17T10:25:16.184Z,96.20
2017-12-17T10:27:43.725Z,96.60
2017-12-17T10:30:11.193Z,96.60
2017-12-17T10:32:38.731Z,96.70
2017-12-17T10:35:07.018Z,96.90
2017-12-17T10:37:35.262Z,96.30
2017-12-17T10:40:02.752Z,96.30
2017-12-17T10:42:31.073Z,96.60
2017-12-17T10:44:58.607Z,96.60
2017-12-17T10:47:26.926Z,96.90
2017-12-17T10:49:54.393Z,96.80
2017-12-17T10:52:21.896Z,96.30
2017-12-17T10:54:49.363Z,96.40
2017-12-17T10:57:17.636Z,96.10
2017-12-17T10:59:45.119Z,96.10
2017-12-17T11:02:13.355Z,96.40
2017-12-17T11:04:40.884Z,96.30
2017-12-17T11:07:09.103Z,96.20
2017-12-17T11:09:36.616Z,96.10
2017-12-17T11:12:04.068Z,95.90
2017-12-17T11:14:32.378Z,95.70
2017-12-17T11:17:00.569Z,96.20
2017-12-17T11:19:28.080Z,96.10
2017-12-17T11:21:55.603Z,96.60
2017-12-17T11:24:23.137Z,96.30
2017-12-17T11:26:50.600Z,96.20
2017-12-17T11:29:18.832Z,96.10
2017-12-17T11:31:46.323Z,96.00
2017-12-17T11:34:13.793Z,95.90
2017-12-17T11:36:42.012Z,96.30
2017-12-17T11:39:09.775Z,96.30
2017-12-17T11:41:37.995Z,96.20
2017-12-17T11:44:05.441Z,96.10
2017-12-17T11:46:32.963Z,96.30
2017-12-17T11:49:00.492Z,96.50
2017-12-17T11:51:28.017Z,96.00
2017-12-17T11:53:55.526Z,96.50
2017-12-17T11:56:23.781Z,96.20
2017-12-17T11:58:51.231Z,96.20
2017-12-17T12:01:18.790Z,96.20
2017-12-17T12:03:46.254Z,96.00
2017-12-17T12:06:15.205Z,96.00
2017-12-17T12:08:42.831Z,95.60
2017-12-17T12:11:10.402Z,96.00
2017-12-17T12:13:39.371Z,96.00
2017-12-17T12:16:07.599Z,96.00
2017-12-17T12:18:35.104Z,96.00
2017-12-17T12:21:03.343Z,95.90
2017-12-17T12:23:30.939Z,95.90
2017-12-17T12:25:58.557Z,95.60
2017-12-17T12:28:26.000Z,95.60
2017-12-17T12:30:54.294Z,95.90
2017-12-17T12:33:21.690Z,95.90
2017-12-17T12:35:49.242Z,95.40
2017-12-17T12:38:16.709Z,96.00
2017-12-17T12:40:44.194Z,96.40
2017-12-17T12:43:11.712Z,96.60
2017-12-17T12:45:39.176Z,96.20
2017-12-17T12:48:06.767Z,96.10
2017-12-17T12:50:34.275Z,96.10
2017-12-17T12:53:02.640Z,95.50
2017-12-17T12:55:30.113Z,95.50
2017-12-17T12:57:58.516Z,96.10
2017-12-17T13:00:25.978Z,96.10
2017-12-17T13:02:53.577Z,96.10
2017-12-17T13:05:21.100Z,96.10
2017-12-17T13:07:48.602Z,96.20
2017-12-17T13:10:16.201Z,96.00
2017-12-17T13:12:43.865Z,96.20
2017-12-17T13:15:11.403Z,96.70
2017-12-17T13:17:38.903Z,96.20
2017-12-17T13:20:06.516Z,97.00
2017-12-17T13:22:34.711Z,96.20
2017-12-17T13:25:02.207Z,96.20
2017-12-17T13:27:29.824Z,96.30
2017-12-17T13:29:58.301Z,96.50
2017-12-17T13:32:26.084Z,96.50
2017-12-17T13:34:53.956Z,96.60
2017-12-17T13:37:22.175Z,96.40
2017-12-17T13:39:49.716Z,96.70
2017-12-17T13:42:17.210Z,96.10
2017-12-17T13:44:45.464Z,96.10
2017-12-17T13:47:12.960Z,96.10
2017-12-17T13:49:40.474Z,95.80
2017-12-17T13:52:07.973Z,95.90
2017-12-17T13:54:35.487Z,96.00
2017-12-17T13:57:03.252Z,96.00
2017-12-17T13:59:31.217Z,96.30
2017-12-17T14:01:58.805Z,96.40
2017-12-17T14:04:26.336Z,96.50
2017-12-17T14:06:53.844Z,96.70
2017-12-17T14:09:21.345Z,96.80
2017-12-17T14:11:48.779Z,96.60
2017-12-17T14:14:16.295Z,96.90
2017-12-17T14:16:44.566Z,96.80
2017-12-17T14:19:12.010Z,96.70
2017-12-17T14:21:39.485Z,96.70
2017-12-17T14:24:07.763Z,96.70
2017-12-17T14:26:35.302Z,96.70
2017-12-17T14:29:02.792Z,97.10
2017-12-17T14:31:30.366Z,96.70
2017-12-17T14:33:57.903Z,96.70
2017-12-17T14:36:25.334Z,96.90
2017-12-17T14:38:52.834Z,97.40
2017-12-17T14:41:20.356Z,97.10
2017-12-17T14:43:49.645Z,97.10
2017-12-17T14:46:17.246Z,97.10
2017-12-17T14:48:44.768Z,96.60
2017-12-17T14:51:12.228Z,96.90
2017-12-17T14:53:39.727Z,96.80
2017-12-17T14:56:07.264Z,96.70
2017-12-17T14:58:35.549Z,97.30
2017-12-17T15:01:03.013Z,97.20
2017-12-17T15:03:30.617Z,96.80
2017-12-17T15:05:58.900Z,97.10
2017-12-17T15:08:27.182Z,96.90
2017-12-17T15:10:54.699Z,96.90
2017-12-17T15:13:22.216Z,96.60
2017-12-17T15:15:50.473Z,97.50
2017-12-17T15:18:18.047Z,97.20
2017-12-17T15:20:45.582Z,97.20
2017-12-17T15:23:13.084Z,97.00
2017-12-17T15:25:40.584Z,97.00
2017-12-17T15:28:08.098Z,96.90
2017-12-17T15:30:35.615Z,97.10
2017-12-17T15:33:03.202Z,96.80
2017-12-17T15:35:30.758Z,96.80
2017-12-17T15:37:58.234Z,97.20
2017-12-17T15:40:25.832Z,96.80
2017-12-17T15:42:53.293Z,96.60
2017-12-17T15:45:21.861Z,97.00
2017-12-17T15:47:50.379Z,96.80
2017-12-17T15:50:17.990Z,96.80
2017-12-17T15:52:45.506Z,96.70
2017-12-17T15:55:13.754Z,96.50
2017-12-17T15:57:41.261Z,96.50
2017-12-17T16:00:09.539Z,96.90
2017-12-17T16:02:37.793Z,97.10
2017-12-17T16:05:05.408Z,97.10
2017-12-17T16:07:33.591Z,97.10
2017-12-17T16:10:01.075Z,97.10
2017-12-17T16:12:28.566Z,97.00
2017-12-17T16:14:56.067Z,97.00
2017-12-17T16:17:23.546Z,96.90
2017-12-17T16:19:51.062Z,96.90
2017-12-17T16:22:18.605Z,96.70
2017-12-17T16:24:46.031Z,96.60
2017-12-17T16:27:13.546Z,97.10
2017-12-17T16:29:41.836Z,97.00
2017-12-17T16:32:10.102Z,97.00
2017-12-17T16:34:37.644Z,97.00
2017-12-17T16:37:05.157Z,97.40
2017-12-17T16:39:33.463Z,97.30
2017-12-17T16:42:00.969Z,97.30
2017-12-17T16:44:28.454Z,97.50
2017-12-17T16:46:55.987Z,97.50
2017-12-17T16:49:23.487Z,97.90
2017-12-17T16:51:51.772Z,97.30
2017-12-17T16:54:19.302Z,97.30
2017-12-17T16:56:46.956Z,96.90
2017-12-17T16:59:14.802Z,96.90
2017-12-17T17:01:42.350Z,97.00
2017-12-17T17:04:09.891Z,96.70
2017-12-17T17:06:37.426Z,96.70
2017-12-17T17:09:05.068Z,96.70
2017-12-17T17:11:32.581Z,96.70
2017-12-17T17:14:00.919Z,96.50
2017-12-17T17:16:28.429Z,96.60
2017-12-17T17:18:56.020Z,96.60
2017-12-17T17:21:23.484Z,96.40
2017-12-17T17:23:51.112Z,96.40
2017-12-17T17:26:18.622Z,96.40
2017-12-17T17:28:46.118Z,96.10
2017-12-17T17:31:13.676Z,96.30
2017-12-17T17:33:41.147Z,96.20
2017-12-17T17:36:08.706Z,96.00
2017-12-17T17:38:36.248Z,96.40
2017-12-17T17:41:03.789Z,96.30
2017-12-17T17:43:32.083Z,96.90
2017-12-17T17:45:59.665Z,96.60
2017-12-17T17:48:27.214Z,96.30
2017-12-17T17:50:55.497Z,96.30
2017-12-17T17:53:22.995Z,96.60
2017-12-17T17:55:50.553Z,96.50
2017-12-17T17:58:18.107Z,96.40
2017-12-17T18:00:45.571Z,96.20
2017-12-17T18:03:13.051Z,95.90
2017-12-17T18:05:40.766Z,95.90
2017-12-17T18:08:08.701Z,95.90
2017-12-17T18:10:36.352Z,96.00
2017-12-17T18:13:03.892Z,96.40
2017-12-17T18:15:31.381Z,96.50
2017-12-17T18:17:58.880Z,95.90
2017-12-17T18:20:26.430Z,96.00
2017-12-17T18:22:53.950Z,95.90
2017-12-17T18:25:21.428Z,95.90
2017-12-17T18:27:49.008Z,95.90
2017-12-17T18:30:16.491Z,96.00
2017-12-17T18:32:44.742Z,96.00
2017-12-17T18:35:12.301Z,95.90
2017-12-17T18:37:39.771Z,96.00
2017-12-17T18:40:07.220Z,95.90
2017-12-17T18:42:35.207Z,96.00
2017-12-17T18:45:02.694Z,95.80
2017-12-17T18:47:30.248Z,96.00
2017-12-17T18:49:57.818Z,96.00
2017-12-17T18:52:25.281Z,95.90
2017-12-17T18:54:52.785Z,96.10
2017-12-17T18:57:20.299Z,95.70
2017-12-17T18:59:47.794Z,95.70
2017-12-17T19:02:15.223Z,95.70
2017-12-17T19:04:42.731Z,96.00
2017-12-17T19:07:10.219Z,96.00
2017-12-17T19:09:37.705Z,96.00
2017-12-17T19:12:05.426Z,96.00
2017-12-17T19:14:32.895Z,95.80
2017-12-17T19:17:00.418Z,96.00
2017-12-17T19:19:27.924Z,96.00
2017-12-17T19:21:55.415Z,96.00
2017-12-17T19:24:22.962Z,96.30
2017-12-17T19:26:50.438Z,96.00
2017-12-17T19:29:17.900Z,96.00
2017-12-17T19:31:45.385Z,96.00
2017-12-17T19:34:13.646Z,96.00
2017-12-17T19:36:41.275Z,96.00
2017-12-17T19:39:08.738Z,96.00
2017-12-17T19:41:36.182Z,95.90
2017-12-17T19:44:03.715Z,95.80
2017-12-17T19:46:31.181Z,95.80
2017-12-17T19:48:58.698Z,95.80
2017-12-17T19:51:26.176Z,96.10
2017-12-17T19:53:53.688Z,96.00
2017-12-17T19:56:21.142Z,96.30
2017-12-17T19:58:48.625Z,95.60
2017-12-17T20:01:16.868Z,95.50
2017-12-17T20:03:44.398Z,95.50
2017-12-17T20:06:11.901Z,95.80
2017-12-17T20:08:40.151Z,95.60
2017-12-17T20:11:07.642Z,95.60
2017-12-17T20:13:36.628Z,95.60
2017-12-17T20:16:04.149Z,95.60
2017-12-17T20:18:31.619Z,96.00
2017-12-17T20:20:59.982Z,96.10
2017-12-17T20:23:28.282Z,96.10
2017-12-17T20:25:55.733Z,96.00
2017-12-17T20:28:23.263Z,95.90
2017-12-17T20:30:50.738Z,96.10
2017-12-17T20:33:18.270Z,95.40
2017-12-17T20:35:45.752Z,95.50
2017-12-17T20:38:13.274Z,95.60
2017-12-17T20:40:40.835Z,95.60
2017-12-17T20:43:08.286Z,95.80
2017-12-17T20:45:35.717Z,95.60
2017-12-17T20:48:03.300Z,95.70
2017-12-17T20:50:30.800Z,95.80
2017-12-17T20:52:58.296Z,95.80
2017-12-17T20:55:25.772Z,95.70
2017-12-17T20:57:54.019Z,95.70
2017-12-17T21:00:21.511Z,95.70
2017-12-17T21:02:49.803Z,95.60
2017-12-17T21:05:18.053Z,95.60
2017-12-17T21:07:45.630Z,95.50
2017-12-17T21:10:13.584Z,96.00
2017-12-17T21:12:41.063Z,95.70
2017-12-17T21:15:08.599Z,95.40
2017-12-17T21:17:36.120Z,95.50
2017-12-17T21:20:04.401Z,95.50
2017-12-17T21:22:31.883Z,95.50
2017-12-17T21:24:59.430Z,95.30
2017-12-17T21:27:27.690Z,95.50
2017-12-17T21:29:55.937Z,95.70
2017-12-17T21:32:23.446Z,95.40
2017-12-17T21:34:51.697Z,95.50
2017-12-17T21:37:19.186Z,95.50
2017-12-17T21:39:46.774Z,95.50
2017-12-17T21:42:14.531Z,95.50
2017-12-17T21:44:42.842Z,95.10
2017-12-17T21:47:11.081Z,94.80
2017-12-17T21:49:39.416Z,95.10
2017-12-17T21:52:07.622Z,94.90
2017-12-17T21:54:35.140Z,94.90
2017-12-17T21:57:02.605Z,94.70
2017-12-17T21:59:30.145Z,94.90
2017-12-17T22:01:57.640Z,94.80
2017-12-17T22:04:25.149Z,94.90
2017-12-17T22:06:52.708Z,94.70
2017-12-17T22:09:20.209Z,94.40
2017-12-17T22:11:47.720Z,94.60
2017-12-17T22:14:15.211Z,94.60
2017-12-17T22:16:43.539Z,94.20
2017-12-17T22:19:10.989Z,94.10
2017-12-17T22:21:38.458Z,94.20
2017-12-17T22:24:05.985Z,94.20
2017-12-17T22:26:34.226Z,93.80
2017-12-17T22:29:01.744Z,93.80
2017-12-17T22:31:29.263Z,93.80
2017-12-17T22:33:56.705Z,93.80
2017-12-17T22:36:24.192Z,93.60
2017-12-17T22:38:51.737Z,93.10
2017-12-17T22:41:19.206Z,93.20
2017-12-17T22:43:46.713Z,93.60
2017-12-17T22:46:14.234Z,92.80
2017-12-17T22:48:41.698Z,92.50
2017-12-17T22:51:09.187Z,92.20
2017-12-17T22:53:37.458Z,92.20
2017-12-17T22:56:05.711Z,92.20
2017-12-17T22:58:33.199Z,91.80
2017-12-17T23:01:01.470Z,91.80
2017-12-17T23:03:29.002Z,91.70
2017-12-17T23:05:56.489Z,91.80
2017-12-17T23:08:23.971Z,91.40
2017-12-17T23:10:52.296Z,91.50
2017-12-17T23:13:19.734Z,91.30
2017-12-17T23:15:47.241Z,91.60
2017-12-17T23:18:14.678Z,91.10
2017-12-17T23:20:42.147Z,91.30
2017-12-17T23:23:10.381Z,90.90
2017-12-17T23:25:38.744Z,91.20
2017-12-17T23:28:06.200Z,90.90
2017-12-17T23:30:33.697Z,90.90
2017-12-17T23:33:01.178Z,90.50
2017-12-17T23:35:28.655Z,90.60
2017-12-17T23:37:56.137Z,90.40
2017-12-17T23:40:23.624Z,90.60
2017-12-17T23:42:51.083Z,90.10
2017-12-17T23:45:18.668Z,90.30
2017-12-17T23:47:46.058Z,90.10
2017-12-17T23:50:13.607Z,90.40
2017-12-17T23:52:41.101Z,90.60
2017-12-17T23:55:08.601Z,90.90
2017-12-17T23:57:36.136Z,91.40
